sensor_id;sensor_type;location;lat;lon;timestamp;pressure;altitude;pressure_sealevel;temperature;humidity
9538;BME280;4807;48.024;11.726;2022-09-03T00:00:05;64972.22;;;-142.87;100.00
9538;BME280;4807;48.024;11.726;2022-09-03T00:03:21;64972.22;;;-142.87;100.00
9538;BME280;4807;48.024;11.726;2022-09-03T00:06:35;64972.22;;;-142.87;100.00
9538;BME280;4807;48.024;11.726;2022-09-03T00:09:52;64972.22;;;-142.87;100.00
9538;BME280;4807;48.024;11.726;2022-09-03T00:13:06;64972.22;;;-142.87;100.00
9538;BME280;4807;48.024;11.726;2022-09-03T00:16:19;64972.22;;;-142.87;100.00
9538;BME280;4807;48.024;11.726;2022-09-03T00:19:36;64972.22;;;-142.87;100.00
9538;BME280;4807;48.024;11.726;2022-09-03T00:22:50;64972.22;;;-142.87;100.00
9538;BME280;4807;48.024;11.726;2022-09-03T00:26:15;64972.22;;;-142.87;100.00
9538;BME280;4807;48.024;11.726;2022-09-03T00:29:34;64972.22;;;-142.87;100.00
9538;BME280;4807;48.024;11.726;2022-09-03T00:32:47;64972.22;;;-142.87;100.00
9538;BME280;4807;48.024;11.726;2022-09-03T00:36:12;64972.22;;;-142.87;100.00
9538;BME280;4807;48.024;11.726;2022-09-03T00:39:26;64972.22;;;-142.87;100.00
9538;BME280;4807;48.024;11.726;2022-09-03T00:42:46;64972.22;;;-142.87;100.00
9538;BME280;4807;48.024;11.726;2022-09-03T00:46:12;64972.22;;;-142.87;100.00
9538;BME280;4807;48.024;11.726;2022-09-03T00:49:39;64972.22;;;-142.87;100.00
9538;BME280;4807;48.024;11.726;2022-09-03T00:53:03;64972.22;;;-142.87;100.00
9538;BME280;4807;48.024;11.726;2022-09-03T00:56:24;64972.22;;;-142.87;100.00
9538;BME280;4807;48.024;11.726;2022-09-03T00:59:42;64972.22;;;-142.87;100.00
9538;BME280;4807;48.024;11.726;2022-09-03T01:03:06;64972.22;;;-142.87;100.00
9538;BME280;4807;48.024;11.726;2022-09-03T01:06:18;64972.22;;;-142.87;100.00
9538;BME280;4807;48.024;11.726;2022-09-03T01:13:56;64972.22;;;-142.87;100.00
9538;BME280;4807;48.024;11.726;2022-09-03T01:17:16;64972.22;;;-142.87;100.00
9538;BME280;4807;48.024;11.726;2022-09-03T01:20:44;64972.22;;;-142.87;100.00
9538;BME280;4807;48.024;11.726;2022-09-03T01:24:19;64972.22;;;-142.87;100.00
9538;BME280;4807;48.024;11.726;2022-09-03T01:27:47;64972.22;;;-142.87;100.00
9538;BME280;4807;48.024;11.726;2022-09-03T01:31:12;64972.22;;;-142.87;100.00
9538;BME280;4807;48.024;11.726;2022-09-03T01:34:38;64972.22;;;-142.87;100.00
9538;BME280;4807;48.024;11.726;2022-09-03T01:38:08;64972.22;;;-142.87;100.00
9538;BME280;4807;48.024;11.726;2022-09-03T01:41:34;64972.22;;;-142.87;100.00
9538;BME280;4807;48.024;11.726;2022-09-03T01:45:33;64972.22;;;-142.87;100.00
9538;BME280;4807;48.024;11.726;2022-09-03T01:49:14;64972.22;;;-142.87;100.00
9538;BME280;4807;48.024;11.726;2022-09-03T01:52:44;64972.22;;;-142.87;100.00
9538;BME280;4807;48.024;11.726;2022-09-03T01:56:13;64972.22;;;-142.87;100.00
9538;BME280;4807;48.024;11.726;2022-09-03T02:16:47;64972.22;;;-142.87;100.00
9538;BME280;4807;48.024;11.726;2022-09-03T02:19:57;64972.22;;;-142.87;100.00
9538;BME280;4807;48.024;11.726;2022-09-03T02:23:06;64972.22;;;-142.87;100.00
9538;BME280;4807;48.024;11.726;2022-09-03T02:26:19;64972.22;;;-142.87;100.00
9538;BME280;4807;48.024;11.726;2022-09-03T02:29:29;64972.22;;;-142.87;100.00
9538;BME280;4807;48.024;11.726;2022-09-03T02:32:38;64972.22;;;-142.87;100.00
9538;BME280;4807;48.024;11.726;2022-09-03T02:35:47;64972.22;;;-142.87;100.00
9538;BME280;4807;48.024;11.726;2022-09-03T02:38:56;64972.22;;;-142.87;100.00
9538;BME280;4807;48.024;11.726;2022-09-03T02:42:06;64972.22;;;-142.87;100.00
9538;BME280;4807;48.024;11.726;2022-09-03T02:45:26;64972.22;;;-142.87;100.00
9538;BME280;4807;48.024;11.726;2022-09-03T02:48:36;64972.22;;;-142.87;100.00
9538;BME280;4807;48.024;11.726;2022-09-03T02:51:45;64972.22;;;-142.87;100.00
9538;BME280;4807;48.024;11.726;2022-09-03T02:54:53;64972.22;;;-142.87;100.00
9538;BME280;4807;48.024;11.726;2022-09-03T02:58:01;64972.22;;;-142.87;100.00
9538;BME280;4807;48.024;11.726;2022-09-03T03:01:11;64972.22;;;-142.87;100.00
9538;BME280;4807;48.024;11.726;2022-09-03T03:04:32;64972.22;;;-142.87;100.00
9538;BME280;4807;48.024;11.726;2022-09-03T03:07:40;64972.22;;;-142.87;100.00
9538;BME280;4807;48.024;11.726;2022-09-03T03:10:50;64972.22;;;-142.87;100.00
9538;BME280;4807;48.024;11.726;2022-09-03T03:13:59;64972.22;;;-142.87;100.00
9538;BME280;4807;48.024;11.726;2022-09-03T03:17:07;64972.22;;;-142.87;100.00
9538;BME280;4807;48.024;11.726;2022-09-03T03:20:17;64972.22;;;-142.87;100.00
9538;BME280;4807;48.024;11.726;2022-09-03T03:23:25;64972.22;;;-142.87;100.00
9538;BME280;4807;48.024;11.726;2022-09-03T03:26:34;64972.22;;;-142.87;100.00
9538;BME280;4807;48.024;11.726;2022-09-03T03:29:43;64972.22;;;-142.87;100.00
9538;BME280;4807;48.024;11.726;2022-09-03T03:32:53;64972.22;;;-142.87;100.00
9538;BME280;4807;48.024;11.726;2022-09-03T03:36:09;64972.22;;;-142.87;100.00
9538;BME280;4807;48.024;11.726;2022-09-03T03:39:18;64972.22;;;-142.87;100.00
9538;BME280;4807;48.024;11.726;2022-09-03T03:42:27;64972.22;;;-142.87;100.00
9538;BME280;4807;48.024;11.726;2022-09-03T03:45:35;64972.22;;;-142.87;100.00
9538;BME280;4807;48.024;11.726;2022-09-03T03:48:46;64972.22;;;-142.87;100.00
9538;BME280;4807;48.024;11.726;2022-09-03T03:51:56;64972.22;;;-142.87;100.00
9538;BME280;4807;48.024;11.726;2022-09-03T03:55:05;64972.22;;;-142.87;100.00
9538;BME280;4807;48.024;11.726;2022-09-03T03:58:14;64972.22;;;-142.87;100.00
9538;BME280;4807;48.024;11.726;2022-09-03T04:01:25;64972.22;;;-142.87;100.00
9538;BME280;4807;48.024;11.726;2022-09-03T04:04:34;64972.22;;;-142.87;100.00
9538;BME280;4807;48.024;11.726;2022-09-03T04:07:44;64972.22;;;-142.87;100.00
9538;BME280;4807;48.024;11.726;2022-09-03T04:10:53;64972.22;;;-142.87;100.00
9538;BME280;4807;48.024;11.726;2022-09-03T04:14:02;64972.22;;;-142.87;100.00
9538;BME280;4807;48.024;11.726;2022-09-03T04:17:10;64972.22;;;-142.87;100.00
9538;BME280;4807;48.024;11.726;2022-09-03T04:20:18;64972.22;;;-142.87;100.00
9538;BME280;4807;48.024;11.726;2022-09-03T04:23:29;64972.22;;;-142.87;100.00
9538;BME280;4807;48.024;11.726;2022-09-03T04:26:38;64972.22;;;-142.87;100.00
9538;BME280;4807;48.024;11.726;2022-09-03T04:29:46;64972.22;;;-142.87;100.00
9538;BME280;4807;48.024;11.726;2022-09-03T04:32:55;64972.22;;;-142.87;100.00
9538;BME280;4807;48.024;11.726;2022-09-03T04:36:08;64972.22;;;-142.87;100.00
9538;BME280;4807;48.024;11.726;2022-09-03T04:39:18;64972.22;;;-142.87;100.00
9538;BME280;4807;48.024;11.726;2022-09-03T04:42:27;64972.22;;;-142.87;100.00
9538;BME280;4807;48.024;11.726;2022-09-03T04:45:35;64972.22;;;-142.87;100.00
9538;BME280;4807;48.024;11.726;2022-09-03T04:48:47;64972.22;;;-142.87;100.00
9538;BME280;4807;48.024;11.726;2022-09-03T04:51:57;64972.22;;;-142.87;100.00
9538;BME280;4807;48.024;11.726;2022-09-03T04:55:08;64972.22;;;-142.87;100.00
9538;BME280;4807;48.024;11.726;2022-09-03T04:58:18;64972.22;;;-142.87;100.00
9538;BME280;4807;48.024;11.726;2022-09-03T05:01:30;64972.22;;;-142.87;100.00
9538;BME280;4807;48.024;11.726;2022-09-03T05:04:38;64972.22;;;-142.87;100.00
9538;BME280;4807;48.024;11.726;2022-09-03T05:07:48;64972.22;;;-142.87;100.00
9538;BME280;4807;48.024;11.726;2022-09-03T05:11:01;64972.22;;;-142.87;100.00
9538;BME280;4807;48.024;11.726;2022-09-03T05:14:09;64972.22;;;-142.87;100.00
9538;BME280;4807;48.024;11.726;2022-09-03T05:17:27;64972.22;;;-142.87;100.00
9538;BME280;4807;48.024;11.726;2022-09-03T05:20:43;64972.22;;;-142.87;100.00
9538;BME280;4807;48.024;11.726;2022-09-03T05:23:52;64972.22;;;-142.87;100.00
9538;BME280;4807;48.024;11.726;2022-09-03T05:27:02;64972.22;;;-142.87;100.00
9538;BME280;4807;48.024;11.726;2022-09-03T05:30:11;64972.22;;;-142.87;100.00
9538;BME280;4807;48.024;11.726;2022-09-03T05:33:20;64972.22;;;-142.87;100.00
9538;BME280;4807;48.024;11.726;2022-09-03T05:36:32;64972.22;;;-142.87;100.00
9538;BME280;4807;48.024;11.726;2022-09-03T05:39:42;64972.22;;;-142.87;100.00
9538;BME280;4807;48.024;11.726;2022-09-03T05:42:56;64972.22;;;-142.87;100.00
9538;BME280;4807;48.024;11.726;2022-09-03T05:46:08;64972.22;;;-142.87;100.00
9538;BME280;4807;48.024;11.726;2022-09-03T05:49:17;64972.22;;;-142.87;100.00
9538;BME280;4807;48.024;11.726;2022-09-03T05:52:25;64972.22;;;-142.87;100.00
9538;BME280;4807;48.024;11.726;2022-09-03T05:55:34;64972.22;;;-142.87;100.00
9538;BME280;4807;48.024;11.726;2022-09-03T05:58:45;64972.22;;;-142.87;100.00
9538;BME280;4807;48.024;11.726;2022-09-03T06:01:54;64972.22;;;-142.87;100.00
9538;BME280;4807;48.024;11.726;2022-09-03T06:05:07;64972.22;;;-142.87;100.00
9538;BME280;4807;48.024;11.726;2022-09-03T06:08:16;64972.22;;;-142.87;100.00
9538;BME280;4807;48.024;11.726;2022-09-03T06:11:25;64972.22;;;-142.87;100.00
9538;BME280;4807;48.024;11.726;2022-09-03T06:14:36;64972.22;;;-142.87;100.00
9538;BME280;4807;48.024;11.726;2022-09-03T06:17:45;64972.22;;;-142.87;100.00
9538;BME280;4807;48.024;11.726;2022-09-03T06:20:54;64972.22;;;-142.87;100.00
9538;BME280;4807;48.024;11.726;2022-09-03T06:24:03;64972.22;;;-142.87;100.00
9538;BME280;4807;48.024;11.726;2022-09-03T06:27:11;64972.22;;;-142.87;100.00
9538;BME280;4807;48.024;11.726;2022-09-03T06:30:22;64972.22;;;-142.87;100.00
9538;BME280;4807;48.024;11.726;2022-09-03T06:33:35;64972.22;;;-142.87;100.00
9538;BME280;4807;48.024;11.726;2022-09-03T06:36:43;64972.22;;;-142.87;100.00
9538;BME280;4807;48.024;11.726;2022-09-03T06:39:52;64972.22;;;-142.87;100.00
9538;BME280;4807;48.024;11.726;2022-09-03T06:43:01;64972.22;;;-142.87;100.00
9538;BME280;4807;48.024;11.726;2022-09-03T06:46:13;64972.22;;;-142.87;100.00
9538;BME280;4807;48.024;11.726;2022-09-03T06:49:22;64972.22;;;-142.87;100.00
9538;BME280;4807;48.024;11.726;2022-09-03T06:52:32;64972.22;;;-142.87;100.00
9538;BME280;4807;48.024;11.726;2022-09-03T06:55:40;64972.22;;;-142.87;100.00
9538;BME280;4807;48.024;11.726;2022-09-03T06:58:49;64972.22;;;-142.87;100.00
9538;BME280;4807;48.024;11.726;2022-09-03T07:01:59;64972.22;;;-142.87;100.00
9538;BME280;4807;48.024;11.726;2022-09-03T07:05:09;64972.22;;;-142.87;100.00
9538;BME280;4807;48.024;11.726;2022-09-03T07:08:18;64972.22;;;-142.87;100.00
9538;BME280;4807;48.024;11.726;2022-09-03T07:11:29;64972.22;;;-142.87;100.00
9538;BME280;4807;48.024;11.726;2022-09-03T07:14:40;64972.22;;;-142.87;100.00
9538;BME280;4807;48.024;11.726;2022-09-03T07:17:50;64972.22;;;-142.87;100.00
9538;BME280;4807;48.024;11.726;2022-09-03T07:21:00;64972.22;;;-142.87;100.00
9538;BME280;4807;48.024;11.726;2022-09-03T07:24:09;64972.22;;;-142.87;100.00
9538;BME280;4807;48.024;11.726;2022-09-03T07:27:18;64972.22;;;-142.87;100.00
9538;BME280;4807;48.024;11.726;2022-09-03T07:30:26;64972.22;;;-142.87;100.00
9538;BME280;4807;48.024;11.726;2022-09-03T07:33:37;64972.22;;;-142.87;100.00
9538;BME280;4807;48.024;11.726;2022-09-03T07:36:47;64972.22;;;-142.87;100.00
9538;BME280;4807;48.024;11.726;2022-09-03T07:39:57;64972.22;;;-142.87;100.00
9538;BME280;4807;48.024;11.726;2022-09-03T07:43:08;64972.22;;;-142.87;100.00
9538;BME280;4807;48.024;11.726;2022-09-03T07:46:25;64972.22;;;-142.87;100.00
9538;BME280;4807;48.024;11.726;2022-09-03T07:49:35;64972.22;;;-142.87;100.00
9538;BME280;4807;48.024;11.726;2022-09-03T07:52:43;64972.22;;;-142.87;100.00
9538;BME280;4807;48.024;11.726;2022-09-03T07:55:53;64972.22;;;-142.87;100.00
9538;BME280;4807;48.024;11.726;2022-09-03T07:59:04;64972.22;;;-142.87;100.00
9538;BME280;4807;48.024;11.726;2022-09-03T08:02:12;64972.22;;;-142.87;100.00
9538;BME280;4807;48.024;11.726;2022-09-03T08:05:22;64972.22;;;-142.87;100.00
9538;BME280;4807;48.024;11.726;2022-09-03T08:08:31;64972.22;;;-142.87;100.00
9538;BME280;4807;48.024;11.726;2022-09-03T08:11:42;64972.22;;;-142.87;100.00
9538;BME280;4807;48.024;11.726;2022-09-03T08:14:51;64972.22;;;-142.87;100.00
9538;BME280;4807;48.024;11.726;2022-09-03T08:17:59;64972.22;;;-142.87;100.00
9538;BME280;4807;48.024;11.726;2022-09-03T08:21:16;64972.22;;;-142.87;100.00
9538;BME280;4807;48.024;11.726;2022-09-03T08:24:26;64972.22;;;-142.87;100.00
9538;BME280;4807;48.024;11.726;2022-09-03T08:27:34;64972.22;;;-142.87;100.00
9538;BME280;4807;48.024;11.726;2022-09-03T08:30:42;64972.22;;;-142.87;100.00
9538;BME280;4807;48.024;11.726;2022-09-03T08:33:53;64972.22;;;-142.87;100.00
9538;BME280;4807;48.024;11.726;2022-09-03T08:37:03;64972.22;;;-142.87;100.00
9538;BME280;4807;48.024;11.726;2022-09-03T08:40:13;64972.22;;;-142.87;100.00
9538;BME280;4807;48.024;11.726;2022-09-03T08:43:22;64972.22;;;-142.87;100.00
9538;BME280;4807;48.024;11.726;2022-09-03T08:46:44;64972.22;;;-142.87;100.00
9538;BME280;4807;48.024;11.726;2022-09-03T08:50:01;64972.22;;;-142.87;100.00
9538;BME280;4807;48.024;11.726;2022-09-03T08:53:19;64972.22;;;-142.87;100.00
9538;BME280;4807;48.024;11.726;2022-09-03T08:56:30;64972.22;;;-142.87;100.00
9538;BME280;4807;48.024;11.726;2022-09-03T08:59:40;64972.22;;;-142.87;100.00
9538;BME280;4807;48.024;11.726;2022-09-03T09:03:03;64972.22;;;-142.87;100.00
9538;BME280;4807;48.024;11.726;2022-09-03T09:06:20;64972.22;;;-142.87;100.00
9538;BME280;4807;48.024;11.726;2022-09-03T09:09:42;64972.22;;;-142.87;100.00
9538;BME280;4807;48.024;11.726;2022-09-03T09:13:08;64972.22;;;-142.87;100.00
9538;BME280;4807;48.024;11.726;2022-09-03T09:16:30;64972.22;;;-142.87;100.00
9538;BME280;4807;48.024;11.726;2022-09-03T09:19:55;64972.22;;;-142.87;100.00
9538;BME280;4807;48.024;11.726;2022-09-03T09:23:14;64972.22;;;-142.87;100.00
9538;BME280;4807;48.024;11.726;2022-09-03T09:26:24;64972.22;;;-142.87;100.00
9538;BME280;4807;48.024;11.726;2022-09-03T09:29:37;64972.22;;;-142.87;100.00
9538;BME280;4807;48.024;11.726;2022-09-03T09:32:46;64972.22;;;-142.87;100.00
9538;BME280;4807;48.024;11.726;2022-09-03T09:35:55;64972.22;;;-142.87;100.00
9538;BME280;4807;48.024;11.726;2022-09-03T09:39:08;64972.22;;;-142.87;100.00
9538;BME280;4807;48.024;11.726;2022-09-03T09:42:21;64972.22;;;-142.87;100.00
9538;BME280;4807;48.024;11.726;2022-09-03T09:45:30;64972.22;;;-142.87;100.00
9538;BME280;4807;48.024;11.726;2022-09-03T09:48:48;64972.22;;;-142.87;100.00
9538;BME280;4807;48.024;11.726;2022-09-03T09:52:05;64972.22;;;-142.87;100.00
9538;BME280;4807;48.024;11.726;2022-09-03T09:55:18;64972.22;;;-142.87;100.00
9538;BME280;4807;48.024;11.726;2022-09-03T09:58:33;64972.22;;;-142.87;100.00
9538;BME280;4807;48.024;11.726;2022-09-03T10:01:43;64972.22;;;-142.87;100.00
9538;BME280;4807;48.024;11.726;2022-09-03T10:04:54;64972.22;;;-142.87;100.00
9538;BME280;4807;48.024;11.726;2022-09-03T10:08:07;64972.22;;;-142.87;100.00
9538;BME280;4807;48.024;11.726;2022-09-03T10:11:25;64972.22;;;-142.87;100.00
9538;BME280;4807;48.024;11.726;2022-09-03T10:14:39;64972.22;;;-142.87;100.00
9538;BME280;4807;48.024;11.726;2022-09-03T10:18:01;64972.22;;;-142.87;100.00
9538;BME280;4807;48.024;11.726;2022-09-03T10:21:16;64972.22;;;-142.87;100.00
9538;BME280;4807;48.024;11.726;2022-09-03T10:24:37;64972.22;;;-142.87;100.00
9538;BME280;4807;48.024;11.726;2022-09-03T10:27:50;64972.22;;;-142.87;100.00
9538;BME280;4807;48.024;11.726;2022-09-03T10:31:19;64972.22;;;-142.87;100.00
9538;BME280;4807;48.024;11.726;2022-09-03T10:34:41;64972.22;;;-142.87;100.00
9538;BME280;4807;48.024;11.726;2022-09-03T10:38:05;64972.22;;;-142.87;100.00
9538;BME280;4807;48.024;11.726;2022-09-03T10:41:31;64972.22;;;-142.87;100.00
9538;BME280;4807;48.024;11.726;2022-09-03T10:44:59;64972.22;;;-142.87;100.00
9538;BME280;4807;48.024;11.726;2022-09-03T10:48:34;64972.22;;;-142.87;100.00
9538;BME280;4807;48.024;11.726;2022-09-03T10:51:59;64972.22;;;-142.87;100.00
9538;BME280;4807;48.024;11.726;2022-09-03T10:55:19;64972.22;;;-142.87;100.00
9538;BME280;4807;48.024;11.726;2022-09-03T10:58:57;64972.22;;;-142.87;100.00
9538;BME280;4807;48.024;11.726;2022-09-03T11:02:37;64972.22;;;-142.87;100.00
9538;BME280;4807;48.024;11.726;2022-09-03T11:06:01;64972.22;;;-142.87;100.00
9538;BME280;4807;48.024;11.726;2022-09-03T11:09:19;64972.22;;;-142.87;100.00
9538;BME280;4807;48.024;11.726;2022-09-03T11:12:35;64972.22;;;-142.87;100.00
9538;BME280;4807;48.024;11.726;2022-09-03T11:15:50;64972.22;;;-142.87;100.00
9538;BME280;4807;48.024;11.726;2022-09-03T11:19:05;64972.22;;;-142.87;100.00
9538;BME280;4807;48.024;11.726;2022-09-03T11:22:17;64972.22;;;-142.87;100.00
9538;BME280;4807;48.024;11.726;2022-09-03T11:25:31;64972.22;;;-142.87;100.00
9538;BME280;4807;48.024;11.726;2022-09-03T11:28:51;64972.22;;;-142.87;100.00
9538;BME280;4807;48.024;11.726;2022-09-03T11:32:07;64972.22;;;-142.87;100.00
9538;BME280;4807;48.024;11.726;2022-09-03T11:35:28;64972.22;;;-142.87;100.00
9538;BME280;4807;48.024;11.726;2022-09-03T11:38:45;64972.22;;;-142.87;100.00
9538;BME280;4807;48.024;11.726;2022-09-03T11:41:58;64972.22;;;-142.87;100.00
9538;BME280;4807;48.024;11.726;2022-09-03T11:45:22;64972.22;;;-142.87;100.00
9538;BME280;4807;48.024;11.726;2022-09-03T11:48:39;64972.22;;;-142.87;100.00
9538;BME280;4807;48.024;11.726;2022-09-03T11:51:58;64972.22;;;-142.87;100.00
9538;BME280;4807;48.024;11.726;2022-09-03T11:55:10;64972.22;;;-142.87;100.00
9538;BME280;4807;48.024;11.726;2022-09-03T11:58:24;64972.22;;;-142.87;100.00
9538;BME280;4807;48.024;11.726;2022-09-03T12:01:42;64972.22;;;-142.87;100.00
9538;BME280;4807;48.024;11.726;2022-09-03T12:05:12;64972.22;;;-142.87;100.00
9538;BME280;4807;48.024;11.726;2022-09-03T12:08:48;64972.22;;;-142.87;100.00
9538;BME280;4807;48.024;11.726;2022-09-03T12:12:31;64972.22;;;-142.87;100.00
9538;BME280;4807;48.024;11.726;2022-09-03T12:16:24;64972.22;;;-142.87;100.00
9538;BME280;4807;48.024;11.726;2022-09-03T12:19:49;64972.22;;;-142.87;100.00
9538;BME280;4807;48.024;11.726;2022-09-03T12:22:59;64972.22;;;-142.87;100.00
9538;BME280;4807;48.024;11.726;2022-09-03T12:26:13;64972.22;;;-142.87;100.00
9538;BME280;4807;48.024;11.726;2022-09-03T12:29:28;64972.22;;;-142.87;100.00
9538;BME280;4807;48.024;11.726;2022-09-03T12:32:38;64972.22;;;-142.87;100.00
9538;BME280;4807;48.024;11.726;2022-09-03T12:35:57;64972.22;;;-142.87;100.00
9538;BME280;4807;48.024;11.726;2022-09-03T12:39:08;64972.22;;;-142.87;100.00
9538;BME280;4807;48.024;11.726;2022-09-03T12:42:24;64972.22;;;-142.87;100.00
9538;BME280;4807;48.024;11.726;2022-09-03T12:45:43;64972.22;;;-142.87;100.00
9538;BME280;4807;48.024;11.726;2022-09-03T12:49:14;64972.22;;;-142.87;100.00
9538;BME280;4807;48.024;11.726;2022-09-03T12:52:42;64972.22;;;-142.87;100.00
9538;BME280;4807;48.024;11.726;2022-09-03T12:55:56;64972.22;;;-142.87;100.00
9538;BME280;4807;48.024;11.726;2022-09-03T12:59:13;64972.22;;;-142.87;100.00
9538;BME280;4807;48.024;11.726;2022-09-03T13:02:38;64972.22;;;-142.87;100.00
9538;BME280;4807;48.024;11.726;2022-09-03T13:05:53;64972.22;;;-142.87;100.00
9538;BME280;4807;48.024;11.726;2022-09-03T13:09:07;64972.22;;;-142.87;100.00
9538;BME280;4807;48.024;11.726;2022-09-03T13:12:27;64972.22;;;-142.87;100.00
9538;BME280;4807;48.024;11.726;2022-09-03T13:15:40;64972.22;;;-142.87;100.00
9538;BME280;4807;48.024;11.726;2022-09-03T13:19:00;64972.22;;;-142.87;100.00
9538;BME280;4807;48.024;11.726;2022-09-03T13:22:24;64972.22;;;-142.87;100.00
9538;BME280;4807;48.024;11.726;2022-09-03T13:25:54;64972.22;;;-142.87;100.00
9538;BME280;4807;48.024;11.726;2022-09-03T13:29:37;64972.22;;;-142.87;100.00
9538;BME280;4807;48.024;11.726;2022-09-03T13:32:57;64972.22;;;-142.87;100.00
9538;BME280;4807;48.024;11.726;2022-09-03T13:36:16;64972.22;;;-142.87;100.00
9538;BME280;4807;48.024;11.726;2022-09-03T13:39:31;64972.22;;;-142.87;100.00
9538;BME280;4807;48.024;11.726;2022-09-03T13:42:49;64972.22;;;-142.87;100.00
9538;BME280;4807;48.024;11.726;2022-09-03T13:46:06;64972.22;;;-142.87;100.00
9538;BME280;4807;48.024;11.726;2022-09-03T13:49:32;64972.22;;;-142.87;100.00
9538;BME280;4807;48.024;11.726;2022-09-03T13:53:07;64972.22;;;-142.87;100.00
9538;BME280;4807;48.024;11.726;2022-09-03T13:56:28;64972.22;;;-142.87;100.00
9538;BME280;4807;48.024;11.726;2022-09-03T13:59:51;64972.22;;;-142.87;100.00
9538;BME280;4807;48.024;11.726;2022-09-03T14:03:07;64972.22;;;-142.87;100.00
9538;BME280;4807;48.024;11.726;2022-09-03T14:06:39;64972.22;;;-142.87;100.00
9538;BME280;4807;48.024;11.726;2022-09-03T14:10:01;64972.22;;;-142.87;100.00
9538;BME280;4807;48.024;11.726;2022-09-03T14:13:23;64972.22;;;-142.87;100.00
9538;BME280;4807;48.024;11.726;2022-09-03T14:16:45;64972.22;;;-142.87;100.00
9538;BME280;4807;48.024;11.726;2022-09-03T14:20:04;64972.22;;;-142.87;100.00
9538;BME280;4807;48.024;11.726;2022-09-03T14:23:30;64972.22;;;-142.87;100.00
9538;BME280;4807;48.024;11.726;2022-09-03T14:26:53;64972.22;;;-142.87;100.00
9538;BME280;4807;48.024;11.726;2022-09-03T14:30:06;64972.22;;;-142.87;100.00
9538;BME280;4807;48.024;11.726;2022-09-03T15:07:33;94962.19;;;23.77;71.56
9538;BME280;4807;48.024;11.726;2022-09-03T15:10:49;94965.41;;;24.39;79.37
9538;BME280;4807;48.024;11.726;2022-09-03T15:14:12;99294.63;;;29.04;nan
9538;BME280;4807;48.024;11.726;2022-09-03T15:17:42;99312.63;;;28.68;nan
9538;BME280;4807;48.024;11.726;2022-09-03T15:31:08;94877.09;;;19.56;61.10
9538;BME280;4807;48.024;11.726;2022-09-03T15:35:04;94885.09;;;16.88;72.44
9538;BME280;4807;48.024;11.726;2022-09-03T15:38:26;94872.84;;;16.81;72.99
9538;BME280;4807;48.024;11.726;2022-09-03T15:41:49;94878.22;;;16.12;77.17
9538;BME280;4807;48.024;11.726;2022-09-03T15:45:07;94886.66;;;15.81;78.36
9538;BME280;4807;48.024;11.726;2022-09-03T15:48:32;94884.91;;;15.63;79.74
9538;BME280;4807;48.024;11.726;2022-09-03T15:52:01;94881.50;;;15.91;78.87
9538;BME280;4807;48.024;11.726;2022-09-03T15:55:24;94882.78;;;15.88;79.47
9538;BME280;4807;48.024;11.726;2022-09-03T15:58:47;94888.06;;;15.72;80.96
9538;BME280;4807;48.024;11.726;2022-09-03T16:02:05;94883.38;;;15.67;81.12
9538;BME280;4807;48.024;11.726;2022-09-03T16:05:22;94890.38;;;15.80;80.50
9538;BME280;4807;48.024;11.726;2022-09-03T16:08:43;94887.81;;;15.85;80.33
9538;BME280;4807;48.024;11.726;2022-09-03T16:12:07;94891.19;;;15.92;80.46
9538;BME280;4807;48.024;11.726;2022-09-03T16:15:25;94879.84;;;16.01;79.83
9538;BME280;4807;48.024;11.726;2022-09-03T16:18:40;94878.88;;;16.19;80.05
9538;BME280;4807;48.024;11.726;2022-09-03T16:22:04;94870.03;;;16.47;78.97
9538;BME280;4807;48.024;11.726;2022-09-03T16:25:23;94866.41;;;16.82;77.52
9538;BME280;4807;48.024;11.726;2022-09-03T16:28:46;94872.41;;;17.00;76.45
9538;BME280;4807;48.024;11.726;2022-09-03T16:32:26;94863.78;;;17.32;76.39
9538;BME280;4807;48.024;11.726;2022-09-03T16:35:54;94861.69;;;17.67;74.89
9538;BME280;4807;48.024;11.726;2022-09-03T16:39:25;94844.00;;;17.93;73.86
9538;BME280;4807;48.024;11.726;2022-09-03T16:42:46;94852.59;;;18.12;73.64
9538;BME280;4807;48.024;11.726;2022-09-03T16:46:13;94850.34;;;18.25;72.44
9538;BME280;4807;48.024;11.726;2022-09-03T16:49:43;94846.84;;;18.03;72.48
9538;BME280;4807;48.024;11.726;2022-09-03T16:53:07;94849.00;;;17.84;73.77
9538;BME280;4807;48.024;11.726;2022-09-03T16:56:43;94841.50;;;17.53;74.94
9538;BME280;4807;48.024;11.726;2022-09-03T17:00:08;94846.19;;;17.41;75.38
9538;BME280;4807;48.024;11.726;2022-09-03T17:03:45;94843.47;;;17.07;76.59
9538;BME280;4807;48.024;11.726;2022-09-03T17:07:16;94841.00;;;16.89;77.32
9538;BME280;4807;48.024;11.726;2022-09-03T17:10:43;94845.69;;;16.65;77.46
9538;BME280;4807;48.024;11.726;2022-09-03T17:14:36;94840.75;;;16.46;78.55
9538;BME280;4807;48.024;11.726;2022-09-03T17:18:13;94842.88;;;16.32;78.99
9538;BME280;4807;48.024;11.726;2022-09-03T17:21:41;94838.25;;;16.16;80.01
9538;BME280;4807;48.024;11.726;2022-09-03T17:24:53;94837.59;;;15.97;80.33
9538;BME280;4807;48.024;11.726;2022-09-03T17:28:20;94832.84;;;15.87;80.76
9538;BME280;4807;48.024;11.726;2022-09-03T17:31:45;94834.38;;;15.72;80.60
9538;BME280;4807;48.024;11.726;2022-09-03T17:35:08;94838.81;;;15.54;81.01
9538;BME280;4807;48.024;11.726;2022-09-03T17:38:37;94834.69;;;15.52;81.23
9538;BME280;4807;48.024;11.726;2022-09-03T17:41:52;94842.53;;;15.30;81.84
9538;BME280;4807;48.024;11.726;2022-09-03T17:45:13;94844.34;;;15.18;82.63
9538;BME280;4807;48.024;11.726;2022-09-03T17:48:49;94853.22;;;15.07;82.61
9538;BME280;4807;48.024;11.726;2022-09-03T17:52:02;94845.25;;;15.00;82.06
9538;BME280;4807;48.024;11.726;2022-09-03T17:55:22;94851.28;;;14.84;82.87
9538;BME280;4807;48.024;11.726;2022-09-03T17:58:36;94858.88;;;14.75;82.53
9538;BME280;4807;48.024;11.726;2022-09-03T18:01:53;94859.03;;;14.62;83.49
9538;BME280;4807;48.024;11.726;2022-09-03T18:05:21;94854.69;;;14.49;84.09
9538;BME280;4807;48.024;11.726;2022-09-03T18:08:41;94865.03;;;14.46;84.00